createdAt,value
2018-06-27T00:01:57.934Z,8.20
2018-06-27T00:04:26.404Z,8.23
2018-06-27T00:06:54.551Z,9.13
2018-06-27T00:09:23.033Z,9.30
2018-06-27T00:11:51.507Z,9.87
2018-06-27T00:14:20.028Z,9.60
2018-06-27T00:16:48.182Z,8.53
2018-06-27T00:19:16.709Z,10.80
2018-06-27T00:21:45.236Z,10.83
2018-06-27T00:24:13.725Z,10.03
2018-06-27T00:26:42.171Z,17.60
2018-06-27T00:29:10.692Z,12.90
2018-06-27T00:31:39.199Z,10.87
2018-06-27T00:34:07.359Z,10.70
2018-06-27T00:36:35.831Z,12.30
2018-06-27T00:39:06.726Z,14.70
2018-06-27T00:42:38.572Z,12.67
2018-06-27T00:45:07.943Z,12.27
2018-06-27T00:47:36.400Z,11.50
2018-06-27T00:50:04.991Z,10.97
2018-06-27T00:52:33.471Z,10.90
2018-06-27T00:55:01.964Z,10.50
2018-06-27T00:57:30.440Z,10.30
2018-06-27T00:59:58.944Z,10.17
2018-06-27T01:02:27.512Z,9.83
2018-06-27T01:04:55.991Z,8.90
2018-06-27T01:07:24.478Z,9.93
2018-06-27T01:10:56.158Z,9.50
2018-06-27T01:13:24.348Z,9.87
2018-06-27T01:15:52.775Z,10.33
2018-06-27T01:18:21.267Z,9.27
2018-06-27T01:20:49.795Z,9.87
2018-06-27T01:23:18.369Z,8.43
2018-06-27T01:25:46.536Z,8.50
2018-06-27T01:28:14.712Z,9.30
2018-06-27T01:30:42.882Z,9.90
2018-06-27T01:33:11.333Z,8.93
2018-06-27T01:35:39.815Z,9.30
2018-06-27T01:38:08.320Z,9.83
2018-06-27T01:40:36.746Z,10.13
2018-06-27T01:43:05.367Z,10.57
2018-06-27T01:45:34.372Z,11.37
2018-06-27T01:48:03.140Z,12.60
2018-06-27T01:50:31.639Z,11.80
2018-06-27T01:53:00.120Z,11.73
2018-06-27T01:55:28.619Z,12.33
2018-06-27T01:57:57.055Z,13.60
2018-06-27T02:00:25.564Z,13.50
2018-06-27T02:02:54.029Z,13.23
2018-06-27T02:05:22.535Z,13.33
2018-06-27T02:07:50.984Z,14.37
2018-06-27T02:10:19.479Z,14.33
2018-06-27T02:12:47.948Z,13.57
2018-06-27T02:15:16.475Z,14.00
2018-06-27T02:17:44.658Z,13.60
2018-06-27T02:20:12.862Z,12.83
2018-06-27T02:22:41.571Z,14.20
2018-06-27T02:25:10.067Z,14.13
2018-06-27T02:27:38.591Z,13.57
2018-06-27T02:30:07.351Z,12.73
2018-06-27T02:32:36.139Z,14.43
2018-06-27T02:35:05.008Z,13.70
2018-06-27T02:37:33.520Z,14.00
2018-06-27T02:40:01.971Z,14.77
2018-06-27T02:42:30.500Z,14.43
2018-06-27T02:44:58.646Z,14.73
2018-06-27T02:47:27.334Z,13.30
2018-06-27T02:49:56.076Z,16.10
2018-06-27T02:52:24.602Z,16.60
2018-06-27T02:54:53.088Z,17.27
2018-06-27T02:57:21.567Z,17.00
2018-06-27T02:59:50.035Z,17.60
2018-06-27T03:02:18.519Z,16.73
2018-06-27T03:04:47.011Z,16.50
2018-06-27T03:07:15.479Z,17.27
2018-06-27T03:09:43.961Z,16.00
2018-06-27T03:12:12.453Z,15.57
2018-06-27T03:14:40.964Z,16.00
2018-06-27T03:17:09.216Z,15.57
2018-06-27T03:19:37.716Z,12.83
2018-06-27T03:22:05.895Z,12.40
2018-06-27T03:24:34.352Z,10.97
2018-06-27T03:27:02.815Z,10.77
2018-06-27T03:29:31.327Z,10.57
2018-06-27T03:31:59.839Z,11.00
2018-06-27T03:34:27.971Z,12.97
2018-06-27T03:36:56.438Z,12.80
2018-06-27T03:39:25.062Z,12.23
2018-06-27T03:41:53.277Z,12.33
2018-06-27T03:44:21.775Z,12.13
2018-06-27T03:46:50.416Z,12.00
2018-06-27T03:49:19.224Z,10.93
2018-06-27T03:51:47.796Z,12.50
2018-06-27T03:54:16.745Z,13.17
2018-06-27T03:56:45.756Z,14.33
2018-06-27T03:59:14.019Z,14.73
2018-06-27T04:01:42.574Z,14.70
2018-06-27T04:04:11.110Z,14.77
2018-06-27T09:47:05.374Z,8.10
2018-06-27T09:49:33.848Z,7.80
2018-06-27T09:52:02.357Z,6.43
2018-06-27T09:54:30.824Z,7.83
2018-06-27T09:56:59.396Z,16.83
2018-06-27T09:59:27.745Z,6.73
2018-06-27T10:01:56.166Z,7.50
2018-06-27T10:04:24.547Z,5.17
2018-06-27T10:06:52.952Z,5.73
2018-06-27T10:09:21.360Z,5.67
2018-06-27T10:11:49.763Z,4.13
2018-06-27T10:14:17.859Z,4.80
2018-06-27T10:16:46.262Z,4.67
2018-06-27T10:19:14.920Z,4.77
2018-06-27T10:21:43.420Z,4.90
2018-06-27T10:24:12.008Z,5.03
2018-06-27T10:26:40.956Z,5.80
2018-06-27T10:29:09.470Z,4.77
2018-06-27T10:31:37.983Z,4.17
2018-06-27T10:34:06.404Z,4.87
2018-06-27T10:36:34.551Z,4.90
2018-06-27T10:39:03.060Z,4.47
2018-06-27T10:41:31.134Z,4.93
2018-06-27T10:43:59.231Z,4.10
2018-06-27T10:46:27.652Z,4.73
2018-06-27T10:48:56.064Z,4.60
2018-06-27T10:51:24.556Z,4.33
2018-06-27T10:53:52.956Z,4.30
2018-06-27T10:56:21.417Z,5.70
2018-06-27T10:58:49.816Z,7.17
2018-06-27T11:01:18.297Z,4.97
2018-06-27T11:03:46.725Z,4.70
2018-06-27T11:06:15.132Z,5.37
2018-06-27T11:08:43.229Z,4.40
2018-06-27T11:11:11.637Z,4.73
2018-06-27T11:13:40.063Z,5.10
2018-06-27T11:16:08.165Z,5.40
2018-06-27T11:18:36.572Z,5.27
2018-06-27T11:21:04.995Z,4.33
2018-06-27T11:23:33.428Z,4.83
2018-06-27T11:27:26.324Z,4.17
2018-06-27T11:29:54.751Z,3.97
2018-06-27T11:32:23.410Z,3.57
2018-06-27T11:34:51.811Z,4.20
2018-06-27T11:37:20.351Z,4.27
2018-06-27T11:39:48.439Z,4.07
2018-06-27T11:42:16.619Z,4.40
2018-06-27T11:44:45.122Z,3.43
2018-06-27T11:47:13.594Z,3.20
2018-06-27T11:49:41.982Z,3.30
2018-06-27T11:52:10.403Z,3.90
2018-06-27T11:54:38.868Z,3.00
2018-06-27T11:57:07.364Z,2.70
2018-06-27T11:59:35.796Z,3.33
2018-06-27T12:02:04.237Z,3.80
2018-06-27T12:04:32.812Z,2.77
2018-06-27T12:07:01.417Z,2.80
2018-06-27T12:09:29.852Z,3.20
2018-06-27T12:11:58.244Z,3.70
2018-06-27T12:14:26.652Z,2.07
2018-06-27T12:16:55.158Z,2.00
2018-06-27T12:19:23.536Z,2.10
2018-06-27T12:21:51.629Z,13.30
2018-06-27T12:24:20.158Z,5.23
2018-06-27T12:26:48.683Z,8.47
2018-06-27T12:29:17.101Z,20.73
2018-06-27T12:31:45.562Z,2.00
2018-06-27T12:34:14.121Z,20.83
2018-06-27T12:36:42.536Z,2.23
2018-06-27T12:39:11.128Z,7.30
2018-06-27T12:41:39.673Z,4.00
2018-06-27T12:44:08.164Z,2.77
2018-06-27T12:46:37.132Z,2.50
2018-06-27T12:49:05.359Z,4.60
2018-06-27T12:51:33.923Z,1.73
2018-06-27T12:54:02.538Z,3.17
2018-06-27T12:56:31.120Z,2.57
2018-06-27T12:58:59.604Z,3.77
2018-06-27T13:01:28.095Z,4.90
2018-06-27T13:03:56.573Z,1.80
2018-06-27T13:07:49.160Z,1.87
2018-06-27T13:10:17.267Z,4.20
2018-06-27T13:12:45.723Z,1.57
2018-06-27T13:15:14.156Z,5.47
2018-06-27T13:17:42.591Z,3.73
2018-06-27T13:20:11.024Z,2.23
2018-06-27T13:22:39.495Z,1.67
2018-06-27T13:25:07.945Z,2.30
2018-06-27T13:27:36.387Z,2.30
2018-06-27T13:30:05.239Z,4.23
2018-06-27T13:32:33.689Z,10.93
2018-06-27T13:35:02.157Z,2.27
2018-06-27T13:37:30.580Z,3.80
2018-06-27T13:39:59.013Z,2.00
2018-06-27T13:42:27.217Z,3.30
2018-06-27T13:44:55.754Z,3.63
2018-06-27T13:47:24.771Z,1.93
2018-06-27T13:49:52.867Z,2.20
2018-06-27T13:52:21.352Z,3.27
2018-06-27T13:54:54.860Z,2.40
2018-06-27T13:57:24.516Z,1.70
2018-06-27T13:59:53.355Z,2.50
2018-06-27T14:02:21.895Z,1.97
2018-06-27T14:04:50.758Z,2.08
2018-06-27T14:07:19.614Z,2.85
2018-06-27T14:09:48.188Z,4.12
2018-06-27T14:12:16.854Z,3.10
2018-06-27T14:14:45.135Z,3.20
2018-06-27T14:17:13.654Z,2.83
2018-06-27T14:19:42.184Z,1.90
2018-06-27T14:22:10.696Z,2.35
2018-06-27T14:24:39.255Z,1.93
2018-06-27T14:27:07.537Z,2.53
2018-06-27T14:29:35.750Z,2.80
2018-06-27T14:32:04.592Z,2.43
2018-06-27T14:34:33.102Z,3.10
2018-06-27T14:37:01.588Z,3.97
2018-06-27T14:39:30.181Z,2.10
2018-06-27T14:41:58.852Z,4.40
2018-06-27T14:44:27.545Z,2.27
2018-06-27T14:46:56.151Z,2.03
2018-06-27T14:49:24.753Z,2.30
2018-06-27T14:51:53.254Z,3.67
2018-06-27T14:54:21.719Z,2.80
2018-06-27T14:56:50.207Z,3.03
2018-06-27T14:59:18.763Z,3.60
2018-06-27T15:01:47.267Z,3.80
2018-06-27T15:04:15.795Z,2.90
2018-06-27T15:06:43.991Z,3.10
2018-06-27T15:09:12.528Z,3.30
2018-06-27T15:11:41.103Z,4.80
2018-06-27T15:14:09.618Z,2.70
2018-06-27T15:16:37.828Z,4.50
2018-06-27T15:19:06.333Z,2.80
2018-06-27T15:21:34.864Z,6.73
2018-06-27T15:24:03.458Z,3.17
2018-06-27T15:26:31.933Z,3.33
2018-06-27T15:29:00.361Z,4.07
2018-06-27T15:31:28.871Z,3.90
2018-06-27T15:33:57.358Z,3.10
2018-06-27T15:36:25.900Z,3.20
2018-06-27T15:38:55.612Z,3.93
2018-06-27T15:41:24.251Z,5.03
2018-06-27T15:43:52.845Z,4.57
2018-06-27T15:46:21.482Z,10.37
2018-06-27T15:48:50.048Z,4.40
2018-06-27T15:51:18.689Z,2.47
2018-06-27T15:53:46.967Z,1.97
2018-06-27T15:56:15.501Z,1.97
2018-06-27T15:58:44.082Z,1.80
2018-06-27T16:01:12.592Z,2.70
2018-06-27T16:03:41.535Z,5.53
2018-06-27T16:06:10.097Z,11.10
2018-06-27T16:08:38.651Z,2.20
2018-06-27T16:11:07.180Z,1.70
2018-06-27T16:13:35.945Z,1.87
2018-06-27T16:16:04.113Z,2.30
2018-06-27T16:18:32.729Z,2.37
2018-06-27T16:21:01.153Z,1.73
2018-06-27T16:23:29.635Z,2.33
2018-06-27T16:25:58.136Z,2.40
2018-06-27T16:28:26.605Z,2.13
2018-06-27T16:30:55.144Z,2.30
2018-06-27T16:33:23.789Z,3.50
2018-06-27T16:35:52.266Z,2.47
2018-06-27T16:38:20.898Z,3.07
2018-06-27T16:40:49.475Z,3.10
2018-06-27T16:43:18.062Z,3.87
2018-06-27T16:45:46.489Z,4.90
2018-06-27T16:48:14.984Z,2.57
2018-06-27T16:50:43.562Z,3.70
2018-06-27T16:53:11.990Z,3.90
2018-06-27T16:55:40.591Z,4.27
2018-06-27T16:58:09.184Z,2.80
2018-06-27T17:00:37.846Z,11.73
2018-06-27T17:03:06.515Z,2.93
2018-06-27T17:05:34.963Z,2.43
2018-06-27T17:09:27.737Z,2.30
2018-06-27T17:11:55.908Z,4.37
2018-06-27T17:14:24.356Z,4.80
2018-06-27T17:16:52.892Z,2.80
2018-06-27T17:19:21.361Z,7.10
2018-06-27T17:21:49.831Z,6.70
2018-06-27T17:24:18.276Z,5.40
2018-06-27T17:26:47.889Z,10.53
2018-06-27T17:29:16.380Z,2.60
2018-06-27T17:31:44.981Z,2.27
2018-06-27T17:34:13.464Z,2.20
2018-06-27T17:36:41.968Z,3.50
2018-06-27T17:39:10.419Z,1.90
2018-06-27T17:41:39.732Z,4.20
2018-06-27T17:44:08.604Z,3.47
2018-06-27T17:46:37.125Z,3.93
2018-06-27T17:49:05.527Z,5.90
2018-06-27T17:51:34.087Z,7.00
2018-06-27T17:54:02.253Z,2.20
2018-06-27T17:56:30.426Z,2.70
2018-06-27T17:58:58.924Z,2.53
2018-06-27T18:01:27.408Z,2.60
2018-06-27T18:03:55.604Z,2.10
2018-06-27T18:06:24.166Z,2.10
2018-06-27T18:08:52.737Z,2.23
2018-06-27T18:11:22.407Z,2.90
2018-06-27T18:13:51.020Z,2.63
2018-06-27T18:16:19.478Z,2.33
2018-06-27T18:18:48.091Z,2.50
2018-06-27T18:21:16.536Z,2.90
2018-06-27T18:23:45.189Z,2.50
2018-06-27T18:26:14.102Z,2.90
2018-06-27T18:28:42.660Z,3.50
2018-06-27T18:31:11.111Z,2.50
2018-06-27T18:33:39.676Z,1.87
2018-06-27T18:36:08.231Z,2.63
2018-06-27T18:38:36.763Z,1.83
2018-06-27T18:41:05.252Z,1.80
2018-06-27T18:43:33.412Z,2.13
2018-06-27T18:46:01.980Z,2.03
2018-06-27T18:48:30.551Z,3.50
2018-06-27T18:50:59.048Z,2.00
2018-06-27T18:53:27.676Z,1.87
2018-06-27T18:55:56.212Z,2.20
2018-06-27T18:58:24.864Z,1.87
2018-06-27T19:00:53.523Z,2.13
2018-06-27T19:03:22.189Z,1.87
2018-06-27T19:05:50.789Z,2.40
2018-06-27T19:08:19.337Z,1.97
2018-06-27T19:10:48.016Z,2.37
2018-06-27T19:13:16.664Z,2.33
2018-06-27T19:15:45.333Z,1.67
2018-06-27T19:18:13.501Z,1.80
2018-06-27T19:20:42.218Z,1.87
2018-06-27T19:23:10.884Z,2.87
2018-06-27T19:25:39.109Z,2.83
2018-06-27T19:28:07.608Z,1.80
2018-06-27T19:30:36.112Z,1.87
2018-06-27T19:33:04.908Z,6.80
2018-06-27T19:35:33.226Z,6.10
2018-06-27T19:38:01.816Z,3.07
2018-06-27T19:40:30.449Z,5.47
2018-06-27T19:42:58.902Z,2.80
2018-06-27T19:45:27.384Z,3.40
2018-06-27T19:47:55.872Z,12.33
2018-06-27T19:50:24.317Z,2.30
2018-06-27T19:52:52.841Z,4.80
2018-06-27T19:55:21.392Z,5.13
2018-06-27T19:57:50.000Z,3.43
2018-06-27T20:00:18.680Z,69.40
2018-06-27T20:02:47.220Z,20.40
2018-06-27T20:05:15.715Z,6.53
2018-06-27T20:07:44.354Z,7.20
2018-06-27T20:10:12.790Z,6.50
2018-06-27T20:12:41.397Z,5.80
2018-06-27T20:15:10.062Z,5.90
2018-06-27T20:17:38.488Z,3.93
2018-06-27T20:20:08.301Z,2.13
2018-06-27T20:24:01.242Z,2.73
2018-06-27T20:26:29.758Z,2.50
2018-06-27T20:28:58.340Z,2.03
2018-06-27T20:31:26.996Z,2.17
2018-06-27T20:33:55.706Z,3.17
2018-06-27T20:36:24.255Z,2.03
2018-06-27T20:38:52.776Z,6.20
2018-06-27T20:41:21.244Z,4.83
2018-06-27T20:43:49.718Z,6.63
2018-06-27T20:46:18.188Z,6.20
2018-06-27T20:48:46.703Z,3.43
2018-06-27T20:51:14.911Z,4.00
2018-06-27T20:53:43.489Z,2.17
2018-06-27T20:56:11.958Z,2.40
2018-06-27T20:58:40.095Z,2.50
2018-06-27T21:01:08.575Z,2.60
2018-06-27T21:03:37.044Z,2.07
2018-06-27T21:06:05.581Z,2.30
2018-06-27T21:08:34.019Z,2.40
2018-06-27T21:11:02.569Z,1.93
2018-06-27T21:13:31.083Z,2.70
2018-06-27T21:15:59.600Z,2.70
2018-06-27T21:18:27.774Z,2.00
2018-06-27T21:20:55.947Z,4.63
2018-06-27T21:23:24.155Z,9.60
2018-06-27T21:25:53.001Z,8.23
2018-06-27T21:28:21.452Z,10.10
2018-06-27T21:30:50.148Z,3.83
2018-06-27T21:33:18.663Z,2.80
2018-06-27T21:35:47.101Z,3.30
2018-06-27T21:38:15.536Z,2.10
2018-06-27T21:40:43.731Z,5.00
2018-06-27T21:43:12.271Z,2.20
2018-06-27T21:45:40.434Z,3.00
2018-06-27T21:48:08.920Z,3.70
2018-06-27T21:50:37.504Z,3.93
2018-06-27T21:53:06.027Z,1.97
2018-06-27T21:55:34.447Z,1.93
2018-06-27T21:58:02.928Z,4.10
2018-06-27T22:00:32.855Z,2.00
2018-06-27T22:03:02.251Z,2.00
2018-06-27T22:05:30.715Z,4.60
2018-06-27T22:07:59.219Z,2.20
2018-06-27T22:10:27.898Z,1.97
2018-06-27T22:12:56.432Z,6.27
2018-06-27T22:15:24.591Z,2.27
2018-06-27T22:17:52.777Z,1.73
2018-06-27T22:20:21.240Z,1.73
2018-06-27T22:22:49.744Z,1.90
2018-06-27T22:25:17.919Z,1.57
2018-06-27T22:27:46.063Z,1.97
2018-06-27T22:30:14.594Z,1.87
2018-06-27T22:32:43.138Z,1.63
2018-06-27T22:35:11.622Z,2.20
2018-06-27T22:37:40.076Z,2.63
2018-06-27T22:40:08.588Z,1.87
2018-06-27T22:42:37.036Z,2.60
2018-06-27T22:45:05.544Z,1.73
2018-06-27T22:47:34.000Z,2.33
2018-06-27T22:50:02.499Z,1.90
2018-06-27T22:52:30.940Z,2.40
2018-06-27T22:54:59.456Z,2.00
2018-06-27T22:57:27.934Z,1.70
2018-06-27T22:59:56.451Z,1.93
2018-06-27T23:02:24.592Z,1.77
2018-06-27T23:04:53.146Z,6.63
2018-06-27T23:07:21.693Z,1.60
2018-06-27T23:09:49.867Z,1.40
2018-06-27T23:12:18.035Z,1.53
2018-06-27T23:14:46.188Z,1.70
2018-06-27T23:17:14.658Z,1.80
2018-06-27T23:19:43.145Z,1.63
2018-06-27T23:22:22.881Z,1.40
2018-06-27T23:24:51.396Z,1.87
2018-06-27T23:27:19.579Z,1.50
2018-06-27T23:29:47.733Z,2.73
2018-06-27T23:32:16.220Z,2.33
2018-06-27T23:34:44.876Z,2.00
2018-06-27T23:37:13.432Z,1.70
2018-06-27T23:39:41.952Z,1.67
2018-06-27T23:42:10.439Z,1.50
2018-06-27T23:44:38.904Z,1.87
2018-06-27T23:47:07.415Z,1.73
2018-06-27T23:49:35.936Z,2.23
2018-06-27T23:52:04.392Z,2.13
2018-06-27T23:54:32.747Z,2.77
2018-06-27T23:57:01.360Z,1.50
2018-06-27T23:59:29.804Z,1.87
